sensor_id;sensor_type;location;lat;lon;timestamp;P1;durP1;ratioP1;P2;durP2;ratioP2
23866;SDS011;12114;53.404;-1.502;2022-12-24T00:01:12;37.63;;;10.73;;
23866;SDS011;12114;53.404;-1.502;2022-12-24T00:03:37;32.72;;;11.05;;
23866;SDS011;12114;53.404;-1.502;2022-12-24T00:06:04;50.55;;;15.27;;
23866;SDS011;12114;53.404;-1.502;2022-12-24T00:08:33;63.80;;;17.52;;
23866;SDS011;12114;53.404;-1.502;2022-12-24T00:10:59;37.83;;;11.80;;
23866;SDS011;12114;53.404;-1.502;2022-12-24T00:13:24;53.00;;;14.88;;
23866;SDS011;12114;53.404;-1.502;2022-12-24T00:15:50;55.20;;;13.88;;
23866;SDS011;12114;53.404;-1.502;2022-12-24T00:18:16;62.10;;;14.38;;
23866;SDS011;12114;53.404;-1.502;2022-12-24T00:20:45;63.13;;;16.30;;
23866;SDS011;12114;53.404;-1.502;2022-12-24T00:23:12;56.75;;;15.60;;
23866;SDS011;12114;53.404;-1.502;2022-12-24T00:25:38;72.35;;;19.20;;
23866;SDS011;12114;53.404;-1.502;2022-12-24T00:28:04;55.47;;;15.85;;
23866;SDS011;12114;53.404;-1.502;2022-12-24T00:30:30;57.75;;;17.27;;
23866;SDS011;12114;53.404;-1.502;2022-12-24T00:32:56;45.75;;;14.75;;
23866;SDS011;12114;53.404;-1.502;2022-12-24T00:35:21;47.92;;;15.02;;
23866;SDS011;12114;53.404;-1.502;2022-12-24T00:37:47;44.88;;;13.45;;
23866;SDS011;12114;53.404;-1.502;2022-12-24T00:40:13;61.45;;;12.85;;
23866;SDS011;12114;53.404;-1.502;2022-12-24T00:42:40;233.77;;;22.10;;
23866;SDS011;12114;53.404;-1.502;2022-12-24T00:45:05;40.47;;;12.15;;
23866;SDS011;12114;53.404;-1.502;2022-12-24T00:47:31;41.83;;;12.77;;
23866;SDS011;12114;53.404;-1.502;2022-12-24T00:49:57;44.08;;;12.10;;
23866;SDS011;12114;53.404;-1.502;2022-12-24T00:52:23;44.40;;;12.38;;
23866;SDS011;12114;53.404;-1.502;2022-12-24T00:54:48;53.97;;;14.38;;
23866;SDS011;12114;53.404;-1.502;2022-12-24T00:57:13;48.13;;;12.73;;
23866;SDS011;12114;53.404;-1.502;2022-12-24T00:59:39;45.30;;;12.98;;
23866;SDS011;12114;53.404;-1.502;2022-12-24T01:02:05;47.10;;;11.82;;
23866;SDS011;12114;53.404;-1.502;2022-12-24T01:04:30;45.10;;;11.15;;
23866;SDS011;12114;53.404;-1.502;2022-12-24T01:07:15;38.30;;;7.57;;
23866;SDS011;12114;53.404;-1.502;2022-12-24T01:09:40;42.33;;;7.60;;
23866;SDS011;12114;53.404;-1.502;2022-12-24T01:12:06;53.20;;;7.82;;
23866;SDS011;12114;53.404;-1.502;2022-12-24T01:14:32;41.63;;;7.53;;
23866;SDS011;12114;53.404;-1.502;2022-12-24T01:16:57;49.25;;;7.68;;
23866;SDS011;12114;53.404;-1.502;2022-12-24T01:19:25;36.22;;;6.43;;
23866;SDS011;12114;53.404;-1.502;2022-12-24T01:21:50;40.13;;;7.38;;
23866;SDS011;12114;53.404;-1.502;2022-12-24T01:24:17;37.72;;;7.22;;
23866;SDS011;12114;53.404;-1.502;2022-12-24T01:26:43;48.10;;;7.68;;
23866;SDS011;12114;53.404;-1.502;2022-12-24T01:29:08;35.70;;;7.32;;
23866;SDS011;12114;53.404;-1.502;2022-12-24T01:31:37;32.75;;;6.40;;
23866;SDS011;12114;53.404;-1.502;2022-12-24T01:34:02;31.90;;;5.60;;
23866;SDS011;12114;53.404;-1.502;2022-12-24T01:36:28;39.95;;;6.57;;
23866;SDS011;12114;53.404;-1.502;2022-12-24T01:38:53;30.50;;;6.07;;
23866;SDS011;12114;53.404;-1.502;2022-12-24T01:41:20;28.58;;;6.70;;
23866;SDS011;12114;53.404;-1.502;2022-12-24T01:47:10;26.27;;;6.45;;
23866;SDS011;12114;53.404;-1.502;2022-12-24T01:49:47;27.75;;;5.72;;
23866;SDS011;12114;53.404;-1.502;2022-12-24T01:52:18;35.40;;;6.35;;
23866;SDS011;12114;53.404;-1.502;2022-12-24T01:54:50;31.23;;;6.38;;
23866;SDS011;12114;53.404;-1.502;2022-12-24T01:57:23;28.30;;;5.82;;
23866;SDS011;12114;53.404;-1.502;2022-12-24T01:59:55;22.10;;;4.90;;
23866;SDS011;12114;53.404;-1.502;2022-12-24T02:02:23;23.08;;;4.53;;
23866;SDS011;12114;53.404;-1.502;2022-12-24T02:07:22;18.90;;;4.07;;
23866;SDS011;12114;53.404;-1.502;2022-12-24T02:09:50;17.63;;;3.50;;
23866;SDS011;12114;53.404;-1.502;2022-12-24T02:12:21;16.20;;;3.78;;
23866;SDS011;12114;53.404;-1.502;2022-12-24T02:14:46;15.02;;;3.70;;
23866;SDS011;12114;53.404;-1.502;2022-12-24T02:17:34;19.20;;;3.97;;
23866;SDS011;12114;53.404;-1.502;2022-12-24T02:20:23;22.35;;;4.40;;
23866;SDS011;12114;53.404;-1.502;2022-12-24T02:34:35;22.35;;;3.85;;
23866;SDS011;12114;53.404;-1.502;2022-12-24T02:37:10;21.05;;;4.15;;
23866;SDS011;12114;53.404;-1.502;2022-12-24T02:39:54;16.77;;;4.20;;
23866;SDS011;12114;53.404;-1.502;2022-12-24T02:42:26;19.65;;;4.28;;
23866;SDS011;12114;53.404;-1.502;2022-12-24T02:45:03;20.73;;;4.88;;
23866;SDS011;12114;53.404;-1.502;2022-12-24T02:47:32;22.13;;;4.47;;
23866;SDS011;12114;53.404;-1.502;2022-12-24T02:49:59;17.55;;;3.78;;
23866;SDS011;12114;53.404;-1.502;2022-12-24T02:52:34;15.57;;;3.88;;
23866;SDS011;12114;53.404;-1.502;2022-12-24T02:55:03;17.02;;;4.28;;
23866;SDS011;12114;53.404;-1.502;2022-12-24T02:57:39;14.95;;;4.00;;
23866;SDS011;12114;53.404;-1.502;2022-12-24T03:00:08;19.23;;;4.32;;
23866;SDS011;12114;53.404;-1.502;2022-12-24T03:12:48;27.40;;;5.00;;
23866;SDS011;12114;53.404;-1.502;2022-12-24T03:15:21;22.30;;;4.13;;
23866;SDS011;12114;53.404;-1.502;2022-12-24T03:17:49;12.05;;;3.47;;
23866;SDS011;12114;53.404;-1.502;2022-12-24T03:20:20;20.35;;;4.15;;
23866;SDS011;12114;53.404;-1.502;2022-12-24T03:22:49;17.60;;;4.45;;
23866;SDS011;12114;53.404;-1.502;2022-12-24T03:25:15;23.92;;;5.30;;
23866;SDS011;12114;53.404;-1.502;2022-12-24T03:27:40;22.50;;;4.70;;
23866;SDS011;12114;53.404;-1.502;2022-12-24T03:30:09;20.05;;;5.57;;
23866;SDS011;12114;53.404;-1.502;2022-12-24T03:32:38;23.20;;;6.78;;
23866;SDS011;12114;53.404;-1.502;2022-12-24T03:35:04;18.25;;;4.72;;
23866;SDS011;12114;53.404;-1.502;2022-12-24T03:37:31;17.17;;;3.95;;
23866;SDS011;12114;53.404;-1.502;2022-12-24T03:39:57;21.30;;;3.72;;
23866;SDS011;12114;53.404;-1.502;2022-12-24T03:42:23;17.05;;;3.85;;
23866;SDS011;12114;53.404;-1.502;2022-12-24T03:44:48;12.88;;;3.70;;
23866;SDS011;12114;53.404;-1.502;2022-12-24T03:47:14;16.17;;;4.40;;
23866;SDS011;12114;53.404;-1.502;2022-12-24T03:49:39;16.35;;;4.22;;
23866;SDS011;12114;53.404;-1.502;2022-12-24T03:52:05;13.18;;;3.28;;
23866;SDS011;12114;53.404;-1.502;2022-12-24T03:54:30;15.73;;;3.60;;
23866;SDS011;12114;53.404;-1.502;2022-12-24T03:56:56;11.95;;;3.00;;
23866;SDS011;12114;53.404;-1.502;2022-12-24T03:59:21;14.77;;;3.10;;
23866;SDS011;12114;53.404;-1.502;2022-12-24T04:01:47;15.77;;;3.75;;
23866;SDS011;12114;53.404;-1.502;2022-12-24T04:04:12;9.77;;;3.10;;
23866;SDS011;12114;53.404;-1.502;2022-12-24T04:06:38;11.38;;;2.88;;
23866;SDS011;12114;53.404;-1.502;2022-12-24T04:09:03;10.20;;;1.58;;
23866;SDS011;12114;53.404;-1.502;2022-12-24T04:11:30;13.05;;;2.05;;
23866;SDS011;12114;53.404;-1.502;2022-12-24T04:13:56;6.78;;;1.30;;
23866;SDS011;12114;53.404;-1.502;2022-12-24T04:16:22;10.23;;;1.63;;
23866;SDS011;12114;53.404;-1.502;2022-12-24T04:18:48;10.45;;;1.85;;
23866;SDS011;12114;53.404;-1.502;2022-12-24T04:21:13;11.10;;;2.08;;
23866;SDS011;12114;53.404;-1.502;2022-12-24T04:23:39;13.60;;;2.33;;
23866;SDS011;12114;53.404;-1.502;2022-12-24T04:26:06;12.07;;;2.42;;
23866;SDS011;12114;53.404;-1.502;2022-12-24T04:28:34;9.25;;;2.50;;
23866;SDS011;12114;53.404;-1.502;2022-12-24T04:31:02;8.85;;;2.08;;
23866;SDS011;12114;53.404;-1.502;2022-12-24T04:33:30;9.55;;;3.05;;
23866;SDS011;12114;53.404;-1.502;2022-12-24T04:35:56;9.45;;;2.55;;
23866;SDS011;12114;53.404;-1.502;2022-12-24T04:38:23;11.27;;;2.67;;
23866;SDS011;12114;53.404;-1.502;2022-12-24T04:40:56;7.75;;;2.28;;
23866;SDS011;12114;53.404;-1.502;2022-12-24T04:43:23;10.48;;;2.80;;
23866;SDS011;12114;53.404;-1.502;2022-12-24T04:45:48;8.27;;;2.40;;
23866;SDS011;12114;53.404;-1.502;2022-12-24T04:48:14;8.25;;;3.17;;
23866;SDS011;12114;53.404;-1.502;2022-12-24T04:50:39;8.48;;;2.65;;
23866;SDS011;12114;53.404;-1.502;2022-12-24T04:53:05;10.70;;;2.97;;
23866;SDS011;12114;53.404;-1.502;2022-12-24T04:55:30;15.98;;;3.67;;
23866;SDS011;12114;53.404;-1.502;2022-12-24T04:57:56;11.45;;;3.22;;
23866;SDS011;12114;53.404;-1.502;2022-12-24T05:00:21;18.20;;;4.13;;
23866;SDS011;12114;53.404;-1.502;2022-12-24T05:02:47;13.10;;;4.18;;
23866;SDS011;12114;53.404;-1.502;2022-12-24T05:05:13;18.65;;;4.90;;
23866;SDS011;12114;53.404;-1.502;2022-12-24T05:07:38;14.65;;;5.57;;
23866;SDS011;12114;53.404;-1.502;2022-12-24T05:10:04;16.50;;;4.47;;
23866;SDS011;12114;53.404;-1.502;2022-12-24T05:12:30;16.15;;;4.82;;
23866;SDS011;12114;53.404;-1.502;2022-12-24T05:14:56;12.60;;;4.22;;
23866;SDS011;12114;53.404;-1.502;2022-12-24T05:17:22;12.27;;;2.95;;
23866;SDS011;12114;53.404;-1.502;2022-12-24T05:19:48;11.23;;;4.43;;
23866;SDS011;12114;53.404;-1.502;2022-12-24T05:22:13;16.33;;;4.70;;
23866;SDS011;12114;53.404;-1.502;2022-12-24T05:24:57;8.32;;;4.53;;
23866;SDS011;12114;53.404;-1.502;2022-12-24T05:27:41;16.65;;;6.05;;
23866;SDS011;12114;53.404;-1.502;2022-12-24T05:30:07;18.38;;;4.00;;
23866;SDS011;12114;53.404;-1.502;2022-12-24T05:32:33;13.40;;;4.22;;
23866;SDS011;12114;53.404;-1.502;2022-12-24T05:34:58;10.43;;;3.63;;
23866;SDS011;12114;53.404;-1.502;2022-12-24T05:37:24;10.73;;;3.65;;
23866;SDS011;12114;53.404;-1.502;2022-12-24T05:39:50;18.88;;;4.35;;
23866;SDS011;12114;53.404;-1.502;2022-12-24T05:42:17;12.20;;;2.80;;
23866;SDS011;12114;53.404;-1.502;2022-12-24T05:44:43;13.77;;;3.78;;
23866;SDS011;12114;53.404;-1.502;2022-12-24T05:47:08;13.73;;;4.40;;
23866;SDS011;12114;53.404;-1.502;2022-12-24T05:49:34;13.52;;;3.88;;
23866;SDS011;12114;53.404;-1.502;2022-12-24T05:51:59;20.05;;;3.90;;
23866;SDS011;12114;53.404;-1.502;2022-12-24T05:54:25;13.77;;;4.43;;
23866;SDS011;12114;53.404;-1.502;2022-12-24T05:56:51;17.17;;;3.80;;
23866;SDS011;12114;53.404;-1.502;2022-12-24T05:59:16;14.63;;;3.35;;
23866;SDS011;12114;53.404;-1.502;2022-12-24T06:01:42;16.48;;;3.85;;
23866;SDS011;12114;53.404;-1.502;2022-12-24T06:04:11;11.40;;;3.03;;
23866;SDS011;12114;53.404;-1.502;2022-12-24T06:06:37;17.23;;;4.65;;
23866;SDS011;12114;53.404;-1.502;2022-12-24T06:09:03;21.35;;;4.00;;
23866;SDS011;12114;53.404;-1.502;2022-12-24T06:11:28;14.90;;;3.17;;
23866;SDS011;12114;53.404;-1.502;2022-12-24T06:13:54;16.25;;;3.72;;
23866;SDS011;12114;53.404;-1.502;2022-12-24T06:16:20;11.38;;;2.97;;
23866;SDS011;12114;53.404;-1.502;2022-12-24T06:18:48;17.35;;;3.35;;
23866;SDS011;12114;53.404;-1.502;2022-12-24T06:21:14;20.85;;;3.53;;
23866;SDS011;12114;53.404;-1.502;2022-12-24T06:23:41;15.82;;;3.28;;
23866;SDS011;12114;53.404;-1.502;2022-12-24T06:26:08;15.52;;;3.15;;
23866;SDS011;12114;53.404;-1.502;2022-12-24T06:28:36;12.68;;;2.70;;
23866;SDS011;12114;53.404;-1.502;2022-12-24T06:31:03;18.50;;;2.40;;
23866;SDS011;12114;53.404;-1.502;2022-12-24T06:33:30;18.65;;;3.10;;
23866;SDS011;12114;53.404;-1.502;2022-12-24T06:35:57;12.85;;;2.78;;
23866;SDS011;12114;53.404;-1.502;2022-12-24T06:38:23;11.95;;;2.30;;
23866;SDS011;12114;53.404;-1.502;2022-12-24T06:40:49;20.33;;;2.97;;
23866;SDS011;12114;53.404;-1.502;2022-12-24T06:43:14;13.75;;;3.08;;
23866;SDS011;12114;53.404;-1.502;2022-12-24T06:45:43;12.93;;;2.65;;
23866;SDS011;12114;53.404;-1.502;2022-12-24T06:48:10;14.32;;;2.42;;
23866;SDS011;12114;53.404;-1.502;2022-12-24T06:50:36;10.00;;;2.42;;
23866;SDS011;12114;53.404;-1.502;2022-12-24T06:53:01;15.95;;;2.95;;
23866;SDS011;12114;53.404;-1.502;2022-12-24T06:55:26;14.80;;;2.45;;
23866;SDS011;12114;53.404;-1.502;2022-12-24T06:57:52;15.02;;;2.42;;
23866;SDS011;12114;53.404;-1.502;2022-12-24T07:00:18;17.40;;;3.05;;
23866;SDS011;12114;53.404;-1.502;2022-12-24T07:02:46;16.95;;;2.92;;
23866;SDS011;12114;53.404;-1.502;2022-12-24T07:05:11;18.20;;;2.55;;
23866;SDS011;12114;53.404;-1.502;2022-12-24T07:07:39;13.77;;;2.75;;
23866;SDS011;12114;53.404;-1.502;2022-12-24T07:10:12;9.25;;;2.67;;
23866;SDS011;12114;53.404;-1.502;2022-12-24T07:12:39;19.38;;;4.15;;
23866;SDS011;12114;53.404;-1.502;2022-12-24T07:15:06;19.17;;;3.85;;
23866;SDS011;12114;53.404;-1.502;2022-12-24T07:17:32;15.35;;;3.50;;
23866;SDS011;12114;53.404;-1.502;2022-12-24T07:19:57;17.25;;;3.92;;
23866;SDS011;12114;53.404;-1.502;2022-12-24T07:22:23;22.70;;;3.55;;
23866;SDS011;12114;53.404;-1.502;2022-12-24T07:24:48;20.17;;;3.88;;
23866;SDS011;12114;53.404;-1.502;2022-12-24T07:27:14;19.40;;;4.38;;
23866;SDS011;12114;53.404;-1.502;2022-12-24T07:29:39;16.98;;;3.97;;
23866;SDS011;12114;53.404;-1.502;2022-12-24T07:32:05;15.00;;;3.40;;
23866;SDS011;12114;53.404;-1.502;2022-12-24T07:34:31;23.10;;;4.82;;
23866;SDS011;12114;53.404;-1.502;2022-12-24T07:36:56;21.48;;;3.90;;
23866;SDS011;12114;53.404;-1.502;2022-12-24T07:39:22;17.20;;;3.88;;
23866;SDS011;12114;53.404;-1.502;2022-12-24T07:41:48;18.35;;;3.88;;
23866;SDS011;12114;53.404;-1.502;2022-12-24T07:44:14;22.02;;;4.50;;
23866;SDS011;12114;53.404;-1.502;2022-12-24T07:46:41;22.23;;;4.20;;
23866;SDS011;12114;53.404;-1.502;2022-12-24T07:49:07;23.63;;;4.85;;
23866;SDS011;12114;53.404;-1.502;2022-12-24T07:51:32;16.52;;;4.40;;
23866;SDS011;12114;53.404;-1.502;2022-12-24T07:53:58;26.02;;;3.75;;
23866;SDS011;12114;53.404;-1.502;2022-12-24T07:56:24;25.33;;;3.40;;
23866;SDS011;12114;53.404;-1.502;2022-12-24T07:58:50;21.65;;;3.67;;
23866;SDS011;12114;53.404;-1.502;2022-12-24T08:01:16;19.45;;;3.70;;
23866;SDS011;12114;53.404;-1.502;2022-12-24T08:03:42;14.23;;;2.40;;
23866;SDS011;12114;53.404;-1.502;2022-12-24T08:06:08;18.23;;;3.30;;
23866;SDS011;12114;53.404;-1.502;2022-12-24T08:08:34;21.90;;;3.47;;
23866;SDS011;12114;53.404;-1.502;2022-12-24T08:11:01;26.63;;;8.63;;
23866;SDS011;12114;53.404;-1.502;2022-12-24T08:13:28;51.33;;;24.73;;
23866;SDS011;12114;53.404;-1.502;2022-12-24T08:15:54;41.17;;;17.73;;
23866;SDS011;12114;53.404;-1.502;2022-12-24T08:18:20;31.65;;;12.40;;
23866;SDS011;12114;53.404;-1.502;2022-12-24T08:20:46;27.85;;;9.07;;
23866;SDS011;12114;53.404;-1.502;2022-12-24T08:23:11;20.20;;;4.30;;
23866;SDS011;12114;53.404;-1.502;2022-12-24T08:25:40;22.60;;;7.97;;
23866;SDS011;12114;53.404;-1.502;2022-12-24T08:28:07;24.55;;;6.93;;
23866;SDS011;12114;53.404;-1.502;2022-12-24T08:30:33;26.05;;;5.85;;
23866;SDS011;12114;53.404;-1.502;2022-12-24T08:32:59;20.67;;;4.95;;
23866;SDS011;12114;53.404;-1.502;2022-12-24T08:35:25;20.52;;;3.85;;
23866;SDS011;12114;53.404;-1.502;2022-12-24T08:37:50;27.50;;;4.97;;
23866;SDS011;12114;53.404;-1.502;2022-12-24T08:40:16;19.75;;;4.50;;
23866;SDS011;12114;53.404;-1.502;2022-12-24T08:42:41;23.30;;;4.32;;
23866;SDS011;12114;53.404;-1.502;2022-12-24T08:45:07;27.13;;;4.63;;
23866;SDS011;12114;53.404;-1.502;2022-12-24T08:47:34;27.80;;;5.47;;
23866;SDS011;12114;53.404;-1.502;2022-12-24T08:50:01;20.63;;;5.15;;
23866;SDS011;12114;53.404;-1.502;2022-12-24T08:52:27;26.35;;;5.35;;
23866;SDS011;12114;53.404;-1.502;2022-12-24T08:54:53;25.83;;;5.22;;
23866;SDS011;12114;53.404;-1.502;2022-12-24T08:57:18;24.70;;;5.80;;
23866;SDS011;12114;53.404;-1.502;2022-12-24T08:59:44;15.85;;;5.20;;
23866;SDS011;12114;53.404;-1.502;2022-12-24T09:02:10;28.75;;;5.45;;
23866;SDS011;12114;53.404;-1.502;2022-12-24T09:04:38;20.92;;;5.40;;
23866;SDS011;12114;53.404;-1.502;2022-12-24T09:07:04;21.00;;;5.53;;
23866;SDS011;12114;53.404;-1.502;2022-12-24T09:09:31;18.55;;;5.57;;
23866;SDS011;12114;53.404;-1.502;2022-12-24T09:11:56;16.52;;;4.90;;
23866;SDS011;12114;53.404;-1.502;2022-12-24T09:14:22;24.23;;;6.43;;
23866;SDS011;12114;53.404;-1.502;2022-12-24T09:16:47;19.65;;;6.72;;
23866;SDS011;12114;53.404;-1.502;2022-12-24T09:19:13;18.10;;;6.55;;
23866;SDS011;12114;53.404;-1.502;2022-12-24T09:21:39;22.48;;;6.43;;
23866;SDS011;12114;53.404;-1.502;2022-12-24T09:24:04;28.15;;;8.30;;
23866;SDS011;12114;53.404;-1.502;2022-12-24T09:26:30;30.45;;;8.18;;
23866;SDS011;12114;53.404;-1.502;2022-12-24T09:28:56;24.92;;;8.40;;
23866;SDS011;12114;53.404;-1.502;2022-12-24T09:31:23;25.95;;;10.82;;
23866;SDS011;12114;53.404;-1.502;2022-12-24T09:33:49;35.80;;;13.65;;
23866;SDS011;12114;53.404;-1.502;2022-12-24T09:36:15;31.42;;;12.90;;
23866;SDS011;12114;53.404;-1.502;2022-12-24T09:38:41;28.95;;;14.10;;
23866;SDS011;12114;53.404;-1.502;2022-12-24T09:44:29;49.20;;;27.23;;
23866;SDS011;12114;53.404;-1.502;2022-12-24T09:47:02;24.25;;;4.28;;
23866;SDS011;12114;53.404;-1.502;2022-12-24T09:49:48;28.20;;;4.70;;
23866;SDS011;12114;53.404;-1.502;2022-12-24T09:52:37;27.17;;;4.78;;
23866;SDS011;12114;53.404;-1.502;2022-12-24T09:57:37;36.05;;;5.20;;
23866;SDS011;12114;53.404;-1.502;2022-12-24T10:00:10;31.42;;;4.85;;
23866;SDS011;12114;53.404;-1.502;2022-12-24T10:02:43;25.10;;;5.35;;
23866;SDS011;12114;53.404;-1.502;2022-12-24T10:05:12;33.90;;;4.20;;
23866;SDS011;12114;53.404;-1.502;2022-12-24T10:21:30;22.80;;;3.88;;
23866;SDS011;12114;53.404;-1.502;2022-12-24T10:24:20;22.63;;;3.75;;
23866;SDS011;12114;53.404;-1.502;2022-12-24T10:27:04;23.23;;;3.70;;
23866;SDS011;12114;53.404;-1.502;2022-12-24T10:29:36;28.63;;;4.13;;
23866;SDS011;12114;53.404;-1.502;2022-12-24T10:34:32;26.67;;;3.70;;
23866;SDS011;12114;53.404;-1.502;2022-12-24T10:37:02;26.05;;;4.82;;
23866;SDS011;12114;53.404;-1.502;2022-12-24T10:39:28;29.98;;;5.32;;
23866;SDS011;12114;53.404;-1.502;2022-12-24T10:41:54;20.98;;;5.07;;
23866;SDS011;12114;53.404;-1.502;2022-12-24T10:44:25;29.15;;;3.63;;
23866;SDS011;12114;53.404;-1.502;2022-12-24T10:46:52;28.25;;;3.83;;
23866;SDS011;12114;53.404;-1.502;2022-12-24T10:49:19;27.02;;;4.38;;
23866;SDS011;12114;53.404;-1.502;2022-12-24T10:51:55;28.48;;;4.57;;
23866;SDS011;12114;53.404;-1.502;2022-12-24T10:54:24;20.52;;;3.28;;
23866;SDS011;12114;53.404;-1.502;2022-12-24T10:57:00;28.95;;;4.30;;
23866;SDS011;12114;53.404;-1.502;2022-12-24T11:02:24;26.73;;;4.45;;
23866;SDS011;12114;53.404;-1.502;2022-12-24T11:04:53;26.83;;;4.22;;
23866;SDS011;12114;53.404;-1.502;2022-12-24T11:07:19;28.33;;;4.30;;
23866;SDS011;12114;53.404;-1.502;2022-12-24T11:12:34;24.55;;;4.50;;
23866;SDS011;12114;53.404;-1.502;2022-12-24T11:15:06;21.52;;;5.43;;
23866;SDS011;12114;53.404;-1.502;2022-12-24T11:17:40;24.05;;;4.50;;
23866;SDS011;12114;53.404;-1.502;2022-12-24T11:20:05;30.95;;;5.65;;
23866;SDS011;12114;53.404;-1.502;2022-12-24T11:22:40;26.70;;;5.10;;
23866;SDS011;12114;53.404;-1.502;2022-12-24T11:25:20;29.48;;;4.63;;
23866;SDS011;12114;53.404;-1.502;2022-12-24T11:27:51;24.73;;;5.35;;
23866;SDS011;12114;53.404;-1.502;2022-12-24T11:30:20;21.80;;;4.85;;
23866;SDS011;12114;53.404;-1.502;2022-12-24T11:32:49;26.13;;;4.85;;
23866;SDS011;12114;53.404;-1.502;2022-12-24T11:35:39;20.60;;;3.75;;
23866;SDS011;12114;53.404;-1.502;2022-12-24T11:38:10;31.83;;;5.40;;
23866;SDS011;12114;53.404;-1.502;2022-12-24T11:40:41;30.83;;;6.38;;
23866;SDS011;12114;53.404;-1.502;2022-12-24T11:43:16;26.35;;;6.43;;
23866;SDS011;12114;53.404;-1.502;2022-12-24T11:45:54;25.85;;;5.05;;
23866;SDS011;12114;53.404;-1.502;2022-12-24T11:48:23;20.38;;;4.10;;
23866;SDS011;12114;53.404;-1.502;2022-12-24T11:51:04;22.20;;;4.18;;
23866;SDS011;12114;53.404;-1.502;2022-12-24T11:53:43;17.05;;;4.32;;
23866;SDS011;12114;53.404;-1.502;2022-12-24T11:56:14;26.33;;;5.20;;
23866;SDS011;12114;53.404;-1.502;2022-12-24T11:58:51;20.00;;;4.25;;
23866;SDS011;12114;53.404;-1.502;2022-12-24T12:04:14;24.52;;;4.03;;
23866;SDS011;12114;53.404;-1.502;2022-12-24T12:06:46;27.80;;;5.15;;
23866;SDS011;12114;53.404;-1.502;2022-12-24T12:09:22;25.90;;;5.60;;
23866;SDS011;12114;53.404;-1.502;2022-12-24T12:11:54;24.83;;;4.80;;
23866;SDS011;12114;53.404;-1.502;2022-12-24T12:14:31;21.75;;;4.50;;
23866;SDS011;12114;53.404;-1.502;2022-12-24T12:17:13;21.40;;;5.30;;
23866;SDS011;12114;53.404;-1.502;2022-12-24T12:19:56;28.70;;;5.32;;
23866;SDS011;12114;53.404;-1.502;2022-12-24T12:25:26;23.63;;;4.28;;
23866;SDS011;12114;53.404;-1.502;2022-12-24T12:27:59;19.45;;;4.10;;
23866;SDS011;12114;53.404;-1.502;2022-12-24T12:30:28;24.38;;;3.95;;
23866;SDS011;12114;53.404;-1.502;2022-12-24T12:33:02;30.73;;;5.32;;
23866;SDS011;12114;53.404;-1.502;2022-12-24T12:35:37;17.20;;;4.25;;
23866;SDS011;12114;53.404;-1.502;2022-12-24T12:38:39;18.17;;;3.70;;
23866;SDS011;12114;53.404;-1.502;2022-12-24T12:51:45;20.23;;;4.10;;
23866;SDS011;12114;53.404;-1.502;2022-12-24T12:57:04;20.65;;;5.25;;
23866;SDS011;12114;53.404;-1.502;2022-12-24T12:59:36;28.58;;;5.10;;
23866;SDS011;12114;53.404;-1.502;2022-12-24T13:16:10;21.00;;;4.72;;
23866;SDS011;12114;53.404;-1.502;2022-12-24T13:21:20;23.73;;;4.65;;
23866;SDS011;12114;53.404;-1.502;2022-12-24T13:23:49;22.88;;;6.45;;
23866;SDS011;12114;53.404;-1.502;2022-12-24T13:26:15;26.63;;;6.50;;
23866;SDS011;12114;53.404;-1.502;2022-12-24T13:28:41;26.75;;;6.45;;
23866;SDS011;12114;53.404;-1.502;2022-12-24T13:36:02;19.58;;;5.90;;
23866;SDS011;12114;53.404;-1.502;2022-12-24T13:44:02;23.02;;;6.25;;
23866;SDS011;12114;53.404;-1.502;2022-12-24T13:49:37;23.00;;;5.55;;
23866;SDS011;12114;53.404;-1.502;2022-12-24T13:54:31;24.77;;;6.60;;
23866;SDS011;12114;53.404;-1.502;2022-12-24T13:56:59;33.47;;;9.18;;
23866;SDS011;12114;53.404;-1.502;2022-12-24T13:59:29;36.55;;;11.57;;
23866;SDS011;12114;53.404;-1.502;2022-12-24T14:02:00;36.33;;;12.60;;
23866;SDS011;12114;53.404;-1.502;2022-12-24T14:04:27;37.63;;;15.13;;
23866;SDS011;12114;53.404;-1.502;2022-12-24T14:06:56;25.58;;;6.82;;
23866;SDS011;12114;53.404;-1.502;2022-12-24T14:09:25;23.13;;;6.70;;
23866;SDS011;12114;53.404;-1.502;2022-12-24T14:14:33;25.63;;;6.75;;
23866;SDS011;12114;53.404;-1.502;2022-12-24T14:17:02;23.05;;;6.47;;
23866;SDS011;12114;53.404;-1.502;2022-12-24T14:19:50;27.02;;;7.43;;
23866;SDS011;12114;53.404;-1.502;2022-12-24T14:24:54;32.60;;;9.80;;
23866;SDS011;12114;53.404;-1.502;2022-12-24T14:29:56;30.92;;;11.77;;
23866;SDS011;12114;53.404;-1.502;2022-12-24T14:32:31;28.50;;;9.45;;
23866;SDS011;12114;53.404;-1.502;2022-12-24T14:37:39;28.33;;;9.88;;
23866;SDS011;12114;53.404;-1.502;2022-12-24T14:40:06;24.35;;;8.27;;
23866;SDS011;12114;53.404;-1.502;2022-12-24T14:56:13;22.75;;;5.78;;
23866;SDS011;12114;53.404;-1.502;2022-12-24T14:58:41;23.60;;;6.32;;
23866;SDS011;12114;53.404;-1.502;2022-12-24T15:04:04;20.92;;;6.43;;
23866;SDS011;12114;53.404;-1.502;2022-12-24T15:06:49;25.35;;;6.60;;
23866;SDS011;12114;53.404;-1.502;2022-12-24T15:09:18;20.07;;;6.70;;
23866;SDS011;12114;53.404;-1.502;2022-12-24T15:11:47;23.70;;;6.10;;
23866;SDS011;12114;53.404;-1.502;2022-12-24T15:14:15;21.50;;;5.95;;
23866;SDS011;12114;53.404;-1.502;2022-12-24T15:16:42;23.80;;;5.63;;
23866;SDS011;12114;53.404;-1.502;2022-12-24T15:21:46;23.25;;;6.25;;
23866;SDS011;12114;53.404;-1.502;2022-12-24T15:26:56;21.90;;;6.22;;
23866;SDS011;12114;53.404;-1.502;2022-12-24T15:29:27;21.08;;;4.15;;
23866;SDS011;12114;53.404;-1.502;2022-12-24T15:31:58;20.08;;;5.00;;
23866;SDS011;12114;53.404;-1.502;2022-12-24T15:34:39;20.38;;;5.03;;
23866;SDS011;12114;53.404;-1.502;2022-12-24T15:37:10;25.63;;;5.53;;
23866;SDS011;12114;53.404;-1.502;2022-12-24T15:39:41;20.48;;;4.78;;
23866;SDS011;12114;53.404;-1.502;2022-12-24T15:42:07;18.90;;;6.03;;
23866;SDS011;12114;53.404;-1.502;2022-12-24T15:44:37;17.00;;;4.05;;
23866;SDS011;12114;53.404;-1.502;2022-12-24T15:47:29;28.08;;;4.60;;
23866;SDS011;12114;53.404;-1.502;2022-12-24T15:50:02;23.70;;;4.68;;
23866;SDS011;12114;53.404;-1.502;2022-12-24T15:52:31;20.50;;;5.03;;
23866;SDS011;12114;53.404;-1.502;2022-12-24T15:55:22;24.35;;;5.63;;
23866;SDS011;12114;53.404;-1.502;2022-12-24T16:03:29;28.83;;;6.88;;
23866;SDS011;12114;53.404;-1.502;2022-12-24T16:06:08;29.23;;;10.45;;
23866;SDS011;12114;53.404;-1.502;2022-12-24T16:08:38;27.35;;;8.45;;
23866;SDS011;12114;53.404;-1.502;2022-12-24T16:13:58;23.45;;;6.97;;
23866;SDS011;12114;53.404;-1.502;2022-12-24T16:17:00;30.08;;;8.82;;
23866;SDS011;12114;53.404;-1.502;2022-12-24T16:19:25;31.95;;;8.57;;
23866;SDS011;12114;53.404;-1.502;2022-12-24T16:21:54;34.88;;;9.98;;
23866;SDS011;12114;53.404;-1.502;2022-12-24T16:24:28;36.05;;;8.55;;
23866;SDS011;12114;53.404;-1.502;2022-12-24T16:26:56;26.25;;;7.63;;
23866;SDS011;12114;53.404;-1.502;2022-12-24T16:29:22;28.38;;;7.60;;
23866;SDS011;12114;53.404;-1.502;2022-12-24T16:31:49;29.52;;;10.73;;
23866;SDS011;12114;53.404;-1.502;2022-12-24T16:34:17;33.47;;;10.95;;
23866;SDS011;12114;53.404;-1.502;2022-12-24T16:36:44;30.10;;;9.88;;
23866;SDS011;12114;53.404;-1.502;2022-12-24T16:39:18;35.05;;;10.23;;
23866;SDS011;12114;53.404;-1.502;2022-12-24T16:41:47;26.17;;;8.05;;
23866;SDS011;12114;53.404;-1.502;2022-12-24T16:44:32;23.52;;;7.18;;
23866;SDS011;12114;53.404;-1.502;2022-12-24T16:47:00;32.30;;;9.15;;
23866;SDS011;12114;53.404;-1.502;2022-12-24T16:49:26;28.75;;;7.80;;
23866;SDS011;12114;53.404;-1.502;2022-12-24T16:51:53;25.35;;;7.28;;
23866;SDS011;12114;53.404;-1.502;2022-12-24T16:54:19;27.33;;;7.40;;
23866;SDS011;12114;53.404;-1.502;2022-12-24T16:56:44;26.48;;;8.05;;
23866;SDS011;12114;53.404;-1.502;2022-12-24T16:59:13;28.42;;;7.82;;